createdAt,value
2022-08-25T00:00:53.242Z,23.79
2022-08-25T00:03:22.876Z,23.83
2022-08-25T00:05:52.879Z,23.70
2022-08-25T00:08:22.604Z,23.60
2022-08-25T00:11:02.868Z,23.49
2022-08-25T00:13:35.954Z,23.45
2022-08-25T00:16:06.048Z,23.52
2022-08-25T00:18:37.189Z,23.42
2022-08-25T00:21:07.729Z,23.32
2022-08-25T00:23:37.633Z,23.30
2022-08-25T00:26:07.685Z,23.22
2022-08-25T00:28:40.304Z,23.39
2022-08-25T00:31:14.708Z,23.43
2022-08-25T00:33:45.190Z,23.40
2022-08-25T00:36:15.451Z,23.31
2022-08-25T00:38:46.884Z,23.25
2022-08-25T00:41:23.039Z,23.25
2022-08-25T00:43:58.591Z,23.10
2022-08-25T00:46:32.425Z,23.09
2022-08-25T00:49:04.953Z,23.19
2022-08-25T00:51:41.031Z,23.30
2022-08-25T00:54:15.852Z,23.20
2022-08-25T00:56:46.672Z,23.18
2022-08-25T00:59:21.627Z,23.17
2022-08-25T01:01:54.034Z,23.05
2022-08-25T01:04:24.139Z,23.05
2022-08-25T01:06:55.536Z,22.93
2022-08-25T01:09:25.293Z,22.89
2022-08-25T01:11:55.452Z,22.62
2022-08-25T01:14:28.770Z,22.65
2022-08-25T01:16:58.802Z,22.51
2022-08-25T01:19:33.441Z,22.54
2022-08-25T01:22:06.291Z,22.62
2022-08-25T01:24:43.512Z,22.71
2022-08-25T01:27:13.629Z,22.51
2022-08-25T01:29:44.487Z,22.65
2022-08-25T01:32:16.398Z,22.70
2022-08-25T01:34:48.419Z,22.69
2022-08-25T01:37:24.023Z,22.70
2022-08-25T01:39:54.160Z,22.54
2022-08-25T01:42:40.319Z,22.55
2022-08-25T01:45:11.723Z,22.38
2022-08-25T01:47:41.364Z,22.34
2022-08-25T01:50:11.621Z,22.20
2022-08-25T01:52:52.139Z,22.13
2022-08-25T01:55:21.927Z,22.12
2022-08-25T01:57:51.511Z,21.87
2022-08-25T02:00:22.890Z,21.94
2022-08-25T02:02:54.209Z,21.90
2022-08-25T02:05:25.223Z,21.87
2022-08-25T02:07:57.362Z,21.93
2022-08-25T02:10:26.908Z,21.94
2022-08-25T02:12:56.479Z,22.02
2022-08-25T02:15:26.125Z,22.10
2022-08-25T02:17:55.767Z,22.16
2022-08-25T02:20:26.290Z,22.07
2022-08-25T02:22:59.009Z,21.94
2022-08-25T02:25:28.899Z,21.85
2022-08-25T02:27:58.497Z,21.87
2022-08-25T02:30:29.212Z,21.83
2022-08-25T02:32:58.875Z,21.71
2022-08-25T02:35:29.710Z,21.76
2022-08-25T02:38:01.926Z,21.92
2022-08-25T02:40:31.566Z,21.81
2022-08-25T02:43:01.187Z,21.64
2022-08-25T02:45:30.805Z,21.61
2022-08-25T02:48:00.499Z,21.51
2022-08-25T02:50:30.125Z,21.52
2022-08-25T02:53:02.449Z,21.56
2022-08-25T02:55:32.033Z,21.55
2022-08-25T02:58:04.388Z,21.51
2022-08-25T03:00:34.354Z,21.47
2022-08-25T03:03:04.204Z,21.39
2022-08-25T03:05:33.829Z,21.48
2022-08-25T03:08:07.142Z,21.50
2022-08-25T03:10:36.908Z,21.32
2022-08-25T03:13:07.454Z,21.45
2022-08-25T03:15:37.843Z,21.44
2022-08-25T03:18:08.828Z,21.42
2022-08-25T03:20:39.046Z,21.35
2022-08-25T03:23:11.229Z,21.38
2022-08-25T03:25:54.572Z,21.31
2022-08-25T03:28:25.037Z,21.14
2022-08-25T03:31:00.362Z,21.27
2022-08-25T03:33:30.287Z,21.38
2022-08-25T03:36:00.236Z,21.32
2022-08-25T03:38:32.474Z,21.30
2022-08-25T03:41:02.135Z,21.30
2022-08-25T03:43:31.818Z,21.27
2022-08-25T03:46:01.442Z,21.33
2022-08-25T03:48:31.035Z,21.34
2022-08-25T03:51:00.697Z,21.20
2022-08-25T03:53:32.877Z,21.38
2022-08-25T03:56:02.456Z,21.36
2022-08-25T03:58:32.078Z,21.26
2022-08-25T04:01:02.536Z,21.29
2022-08-25T04:03:32.187Z,21.27
2022-08-25T04:06:04.178Z,21.20
2022-08-25T04:08:36.492Z,21.17
2022-08-25T04:11:09.662Z,21.12
2022-08-25T04:13:39.481Z,20.99
2022-08-25T04:16:14.403Z,20.94
2022-08-25T04:18:44.590Z,20.84
2022-08-25T04:21:15.153Z,20.90
2022-08-25T04:23:48.931Z,20.80
2022-08-25T04:26:21.971Z,20.71
2022-08-25T04:28:52.834Z,20.65
2022-08-25T04:31:23.548Z,20.72
2022-08-25T04:33:53.745Z,20.76
2022-08-25T04:36:24.077Z,20.70
2022-08-25T04:38:56.290Z,20.82
2022-08-25T04:41:27.683Z,20.72
2022-08-25T04:43:59.711Z,20.69
2022-08-25T04:46:32.250Z,20.69
2022-08-25T04:49:03.681Z,20.65
2022-08-25T04:51:36.249Z,20.67
2022-08-25T04:54:11.818Z,20.74
2022-08-25T04:56:43.337Z,20.80
2022-08-25T04:59:15.058Z,20.88
2022-08-25T05:01:46.985Z,20.74
2022-08-25T05:04:28.376Z,20.74
2022-08-25T05:06:58.910Z,20.84
2022-08-25T05:09:32.513Z,20.86
2022-08-25T05:12:02.904Z,20.87
2022-08-25T05:14:33.020Z,20.99
2022-08-25T05:17:03.401Z,20.91
2022-08-25T05:19:33.350Z,21.02
2022-08-25T05:22:02.916Z,21.07
2022-08-25T05:24:35.114Z,21.08
2022-08-25T05:27:04.700Z,21.00
2022-08-25T05:29:34.440Z,21.13
2022-08-25T05:32:04.126Z,21.10
2022-08-25T05:34:33.851Z,21.15
2022-08-25T05:37:04.594Z,21.11
2022-08-25T05:39:36.723Z,21.16
2022-08-25T05:42:06.571Z,21.07
2022-08-25T05:44:36.166Z,21.24
2022-08-25T05:47:05.885Z,21.29
2022-08-25T05:49:35.425Z,21.36
2022-08-25T05:52:05.154Z,21.50
2022-08-25T05:54:37.296Z,21.75
2022-08-25T05:57:07.366Z,21.74
2022-08-25T05:59:37.082Z,21.88
2022-08-25T06:02:19.382Z,21.99
2022-08-25T06:04:49.331Z,22.25
2022-08-25T06:07:18.958Z,22.35
2022-08-25T06:09:51.170Z,22.60
2022-08-25T06:12:21.898Z,22.95
2022-08-25T06:14:51.681Z,23.01
2022-08-25T06:17:21.294Z,23.31
2022-08-25T06:19:50.907Z,23.37
2022-08-25T06:22:21.455Z,23.78
2022-08-25T06:24:54.338Z,24.03
2022-08-25T06:27:23.970Z,24.11
2022-08-25T06:29:53.557Z,24.00
2022-08-25T06:32:25.612Z,24.09
2022-08-25T06:34:55.227Z,24.30
2022-08-25T06:37:25.384Z,24.58
2022-08-25T06:39:57.714Z,24.76
2022-08-25T06:42:27.384Z,24.76
2022-08-25T06:44:57.660Z,24.85
2022-08-25T06:47:27.249Z,24.69
2022-08-25T06:49:56.971Z,24.90
2022-08-25T06:52:29.322Z,25.22
2022-08-25T06:55:01.967Z,25.17
2022-08-25T06:57:35.751Z,24.98
2022-08-25T07:00:06.587Z,24.99
2022-08-25T07:02:38.558Z,25.28
2022-08-25T07:05:13.213Z,25.24
2022-08-25T07:07:44.844Z,25.04
2022-08-25T07:10:19.538Z,25.16
2022-08-25T07:12:49.294Z,25.30
2022-08-25T07:15:20.860Z,25.49
2022-08-25T07:17:52.653Z,25.04
2022-08-25T07:23:12.814Z,25.26
2022-08-25T07:25:47.126Z,25.19
2022-08-25T07:28:19.415Z,25.12
2022-08-25T07:30:51.868Z,25.03
2022-08-25T07:33:21.923Z,25.04
2022-08-25T07:35:48.921Z,25.34
2022-08-25T07:38:21.744Z,25.13
2022-08-25T07:40:56.999Z,25.22
2022-08-25T07:43:27.802Z,25.21
2022-08-25T07:46:02.610Z,25.32
2022-08-25T07:48:32.650Z,25.30
2022-08-25T07:51:05.493Z,25.42
2022-08-25T07:53:40.130Z,25.45
2022-08-25T07:56:16.175Z,25.57
2022-08-25T07:58:48.199Z,25.37
2022-08-25T08:01:20.188Z,25.85
2022-08-25T08:03:51.847Z,25.91
2022-08-25T08:06:24.378Z,26.01
2022-08-25T08:08:57.725Z,25.96
2022-08-25T08:11:33.162Z,26.01
2022-08-25T08:14:04.033Z,26.01
2022-08-25T08:16:34.862Z,25.98
2022-08-25T08:19:06.137Z,26.11
2022-08-25T08:21:38.537Z,26.13
2022-08-25T08:24:19.738Z,26.33
2022-08-25T08:27:02.823Z,26.10
2022-08-25T08:29:32.627Z,26.38
2022-08-25T08:32:04.537Z,26.43
2022-08-25T08:34:41.766Z,26.62
2022-08-25T08:37:15.646Z,26.65
2022-08-25T08:39:46.398Z,26.67
2022-08-25T08:42:47.067Z,26.88
2022-08-25T08:45:35.543Z,26.97
2022-08-25T08:48:43.091Z,27.08
2022-08-25T08:51:24.099Z,26.96
2022-08-25T08:53:58.411Z,27.26
2022-08-25T08:56:33.108Z,27.35
2022-08-25T08:59:08.822Z,27.35
2022-08-25T09:01:45.554Z,27.51
2022-08-25T09:04:21.281Z,27.50
2022-08-25T09:06:54.600Z,27.57
2022-08-25T09:09:31.010Z,27.36
2022-08-25T09:12:17.285Z,27.35
2022-08-25T09:15:12.225Z,27.52
2022-08-25T09:17:59.282Z,27.75
2022-08-25T09:20:48.586Z,27.78
2022-08-25T09:23:32.750Z,27.76
2022-08-25T09:26:15.953Z,27.86
2022-08-25T09:28:52.407Z,27.83
2022-08-25T09:31:29.832Z,27.87
2022-08-25T09:34:07.601Z,27.69
2022-08-25T09:36:38.248Z,27.80
2022-08-25T09:39:08.167Z,27.85
2022-08-25T09:41:51.361Z,28.27
2022-08-25T09:44:26.202Z,28.24
2022-08-25T09:47:25.181Z,28.42
2022-08-25T09:50:01.633Z,28.44
2022-08-25T09:52:38.738Z,28.42
2022-08-25T09:55:29.193Z,28.50
2022-08-25T09:58:03.932Z,28.63
2022-08-25T10:00:39.147Z,28.88
2022-08-25T10:03:16.009Z,29.00
2022-08-25T10:06:02.439Z,29.23
2022-08-25T10:08:35.738Z,29.25
2022-08-25T10:11:13.162Z,29.42
2022-08-25T10:13:49.383Z,29.45
2022-08-25T10:16:30.849Z,29.33
2022-08-25T10:19:10.348Z,29.53
2022-08-25T10:21:41.899Z,29.54
2022-08-25T10:24:15.885Z,29.45
2022-08-25T10:26:55.324Z,29.51
2022-08-25T10:29:41.539Z,29.61
2022-08-25T10:32:18.893Z,29.45
2022-08-25T10:34:57.663Z,29.38
2022-08-25T10:37:42.969Z,29.47
2022-08-25T10:40:21.606Z,29.38
2022-08-25T10:43:07.735Z,29.16
2022-08-25T10:45:48.525Z,29.29
2022-08-25T10:48:35.252Z,29.39
2022-08-25T10:51:19.605Z,29.50
2022-08-25T10:53:59.925Z,29.37
2022-08-25T10:56:40.292Z,29.32
2022-08-25T10:59:31.885Z,29.26
2022-08-25T11:02:33.516Z,29.25
2022-08-25T11:05:08.867Z,29.50
2022-08-25T11:07:47.747Z,29.63
2022-08-25T11:10:22.865Z,29.60
2022-08-25T11:12:57.098Z,29.62
2022-08-25T11:15:33.197Z,29.67
2022-08-25T11:18:14.436Z,29.67
2022-08-25T11:20:49.296Z,29.90
2022-08-25T11:23:25.960Z,30.13
2022-08-25T11:25:59.862Z,30.20
2022-08-25T11:28:35.499Z,30.26
2022-08-25T11:31:06.950Z,30.39
2022-08-25T11:33:36.706Z,30.46
2022-08-25T11:36:13.306Z,30.17
2022-08-25T11:38:58.325Z,30.25
2022-08-25T11:41:39.377Z,30.28
2022-08-25T11:44:29.302Z,30.41
2022-08-25T11:47:21.154Z,30.23
2022-08-25T11:49:57.305Z,30.16
2022-08-25T11:52:46.935Z,30.25
2022-08-25T11:55:22.860Z,30.16
2022-08-25T11:57:55.784Z,30.34
2022-08-25T12:00:42.741Z,30.42
2022-08-25T12:03:48.106Z,30.21
2022-08-25T12:06:33.553Z,30.05
2022-08-25T12:09:22.935Z,29.97
2022-08-25T12:12:00.384Z,29.93
2022-08-25T12:14:46.745Z,30.18
2022-08-25T12:17:26.966Z,30.19
2022-08-25T12:20:02.115Z,29.96
2022-08-25T12:22:52.585Z,29.81
2022-08-25T12:25:48.933Z,30.24
2022-08-25T12:28:50.419Z,30.34
2022-08-25T12:31:34.769Z,30.07
2022-08-25T12:34:19.141Z,30.24
2022-08-25T12:37:02.749Z,30.39
2022-08-25T12:39:39.839Z,30.51
2022-08-25T12:42:25.330Z,30.40
2022-08-25T12:45:17.632Z,30.36
2022-08-25T12:47:48.493Z,30.45
2022-08-25T12:50:32.422Z,30.50
2022-08-25T12:53:13.891Z,30.60
2022-08-25T12:55:49.548Z,30.71
2022-08-25T12:58:19.415Z,30.58
2022-08-25T13:01:09.452Z,30.54
2022-08-25T13:04:02.821Z,30.67
2022-08-25T13:06:56.943Z,30.86
2022-08-25T13:10:04.460Z,31.06
2022-08-25T13:12:40.607Z,30.95
2022-08-25T13:15:15.765Z,30.93
2022-08-25T13:17:47.944Z,30.79
2022-08-25T13:20:20.387Z,30.81
2022-08-25T13:22:57.182Z,31.00
2022-08-25T13:25:32.732Z,30.75
2022-08-25T13:28:06.049Z,30.70
2022-08-25T13:30:39.199Z,30.85
2022-08-25T13:33:25.084Z,30.76
2022-08-25T13:36:18.718Z,30.97
2022-08-25T13:38:47.699Z,31.07
2022-08-25T13:41:29.656Z,31.16
2022-08-25T13:44:03.529Z,31.04
2022-08-25T13:46:35.474Z,30.95
2022-08-25T13:49:10.900Z,30.95
2022-08-25T13:51:42.469Z,30.95
2022-08-25T13:54:27.908Z,31.02
2022-08-25T13:57:06.374Z,31.14
2022-08-25T13:59:40.507Z,31.17
2022-08-25T14:02:19.355Z,31.03
2022-08-25T14:04:53.100Z,31.02
2022-08-25T14:07:34.183Z,30.98
2022-08-25T14:10:07.558Z,31.18
2022-08-25T14:12:42.277Z,31.18
2022-08-25T14:15:33.366Z,31.09
2022-08-25T14:18:07.238Z,30.78
2022-08-25T14:20:41.682Z,30.92
2022-08-25T14:23:16.318Z,31.10
2022-08-25T14:25:48.945Z,31.09
2022-08-25T14:28:21.581Z,31.09
2022-08-25T14:30:54.510Z,31.00
2022-08-25T14:33:29.393Z,30.90
2022-08-25T14:36:05.476Z,30.97
2022-08-25T14:38:38.709Z,30.84
2022-08-25T14:43:58.542Z,30.98
2022-08-25T14:46:34.144Z,31.18
2022-08-25T14:49:07.339Z,31.23
2022-08-25T14:51:43.366Z,31.22
2022-08-25T14:54:18.582Z,31.28
2022-08-25T14:56:49.859Z,31.39
2022-08-25T14:59:19.770Z,31.08
2022-08-25T15:01:50.080Z,31.44
2022-08-25T15:04:23.392Z,31.48
2022-08-25T15:07:01.150Z,31.49
2022-08-25T15:09:33.412Z,31.24
2022-08-25T15:12:03.639Z,31.52
2022-08-25T15:14:34.422Z,31.63
2022-08-25T15:17:04.820Z,31.49
2022-08-25T15:19:37.506Z,31.50
2022-08-25T15:22:10.097Z,31.52
2022-08-25T15:24:40.622Z,31.43
2022-08-25T15:27:11.101Z,31.54
2022-08-25T15:29:40.963Z,31.59
2022-08-25T15:32:12.472Z,31.42
2022-08-25T15:34:42.050Z,31.60
2022-08-25T15:37:17.705Z,31.68
2022-08-25T15:39:49.268Z,31.75
2022-08-25T15:42:19.322Z,31.71
2022-08-25T15:44:53.121Z,31.74
2022-08-25T15:47:24.137Z,31.88
2022-08-25T15:50:02.530Z,31.53
2022-08-25T15:52:46.566Z,31.75
2022-08-25T15:55:17.877Z,31.68
2022-08-25T15:57:50.035Z,31.63
2022-08-25T16:00:21.491Z,31.62
2022-08-25T16:02:51.247Z,31.34
2022-08-25T16:05:25.720Z,31.49
2022-08-25T16:07:58.311Z,31.38
2022-08-25T16:10:28.635Z,31.42
2022-08-25T16:12:58.193Z,31.30
2022-08-25T16:15:28.904Z,31.32
2022-08-25T16:18:01.223Z,31.30
2022-08-25T16:20:31.283Z,31.84
2022-08-25T16:23:05.694Z,31.29
2022-08-25T16:25:36.365Z,31.38
2022-08-25T16:28:06.559Z,31.24
2022-08-25T16:30:36.119Z,31.09
2022-08-25T16:33:06.388Z,31.14
2022-08-25T16:35:36.451Z,31.16
2022-08-25T16:38:13.270Z,31.18
2022-08-25T16:40:43.765Z,31.27
2022-08-25T16:43:14.228Z,31.04
2022-08-25T16:45:46.627Z,31.12
2022-08-25T16:48:16.180Z,31.06
2022-08-25T16:50:45.843Z,31.22
2022-08-25T16:53:33.066Z,31.10
2022-08-25T16:56:06.579Z,30.99
2022-08-25T16:58:38.363Z,31.04
2022-08-25T17:01:12.611Z,30.98
2022-08-25T17:03:44.211Z,31.00
2022-08-25T17:06:15.362Z,30.87
2022-08-25T17:08:49.562Z,30.86
2022-08-25T17:11:21.899Z,30.87
2022-08-25T17:13:53.492Z,30.80
2022-08-25T17:16:28.093Z,30.65
2022-08-25T17:18:57.957Z,30.72
2022-08-25T17:21:28.632Z,30.68
2022-08-25T17:24:00.810Z,30.28
2022-08-25T17:26:36.223Z,30.71
2022-08-25T17:29:07.394Z,30.59
2022-08-25T17:31:40.102Z,30.75
2022-08-25T17:34:12.195Z,30.67
2022-08-25T17:36:46.838Z,30.48
2022-08-25T17:39:22.110Z,30.49
2022-08-25T17:41:52.535Z,30.35
2022-08-25T17:44:22.659Z,30.33
2022-08-25T17:46:52.714Z,30.37
2022-08-25T17:49:22.535Z,30.35
2022-08-25T17:51:52.781Z,30.19
2022-08-25T17:54:25.056Z,30.30
2022-08-25T17:56:54.612Z,30.22
2022-08-25T17:59:24.267Z,30.31
2022-08-25T18:01:55.657Z,30.27
2022-08-25T18:04:27.183Z,30.23
2022-08-25T18:06:59.187Z,30.23
2022-08-25T18:09:31.950Z,30.22
2022-08-25T18:12:01.462Z,29.87
2022-08-25T18:14:31.164Z,30.04
2022-08-25T18:17:03.686Z,30.00
2022-08-25T18:19:34.321Z,30.05
2022-08-25T18:22:06.332Z,29.98
2022-08-25T18:24:38.678Z,30.02
2022-08-25T18:27:08.567Z,29.96
2022-08-25T18:29:38.321Z,29.87
2022-08-25T18:32:12.417Z,29.68
2022-08-25T18:34:42.079Z,29.75
2022-08-25T18:37:24.198Z,29.49
2022-08-25T18:40:08.996Z,29.53
2022-08-25T18:42:38.710Z,29.58
2022-08-25T18:45:12.352Z,29.53
2022-08-25T18:47:42.598Z,29.43
2022-08-25T18:50:12.462Z,29.30
2022-08-25T18:52:42.863Z,29.38
2022-08-25T18:55:15.460Z,29.16
2022-08-25T18:57:46.464Z,29.26
2022-08-25T19:00:18.596Z,29.26
2022-08-25T19:02:49.254Z,29.14
2022-08-25T19:05:20.514Z,29.14
2022-08-25T19:07:51.804Z,29.15
2022-08-25T19:10:25.286Z,29.17
2022-08-25T19:12:55.606Z,28.92
2022-08-25T19:15:28.188Z,28.66
2022-08-25T19:18:01.096Z,28.85
2022-08-25T19:20:31.854Z,28.91
2022-08-25T19:23:01.503Z,28.72
2022-08-25T19:25:35.243Z,28.62
2022-08-25T19:28:14.565Z,28.72
2022-08-25T19:30:50.638Z,28.54
2022-08-25T19:33:42.144Z,28.37
2022-08-25T19:36:11.706Z,28.25
2022-08-25T19:38:41.718Z,28.21
2022-08-25T19:41:15.723Z,28.11
2022-08-25T19:43:56.103Z,27.95
2022-08-25T19:46:32.274Z,28.12
2022-08-25T19:49:08.068Z,28.14
2022-08-25T19:51:40.994Z,28.02
2022-08-25T19:54:14.974Z,28.08
2022-08-25T19:56:54.660Z,28.03
2022-08-25T19:59:26.857Z,27.88
2022-08-25T20:02:11.997Z,27.91
2022-08-25T20:04:47.931Z,27.92
2022-08-25T20:07:21.213Z,27.69
2022-08-25T20:09:50.936Z,27.54
2022-08-25T20:12:27.095Z,27.49
2022-08-25T20:14:57.859Z,27.44
2022-08-25T20:17:30.220Z,27.46
2022-08-25T20:20:02.154Z,27.21
2022-08-25T20:22:36.183Z,27.36
2022-08-25T20:25:07.659Z,27.39
2022-08-25T20:27:50.524Z,27.38
2022-08-25T20:30:22.765Z,27.23
2022-08-25T20:32:52.950Z,27.28
2022-08-25T20:35:26.799Z,27.32
2022-08-25T20:37:58.130Z,27.33
2022-08-25T20:40:29.853Z,27.26
2022-08-25T20:43:04.645Z,27.19
2022-08-25T20:45:34.264Z,27.21
2022-08-25T20:48:06.496Z,27.10
2022-08-25T20:50:36.431Z,27.14
2022-08-25T20:53:10.289Z,27.05
2022-08-25T20:55:45.872Z,27.02
2022-08-25T20:58:20.231Z,27.14
2022-08-25T21:00:49.940Z,27.04
2022-08-25T21:03:19.757Z,26.82
2022-08-25T21:05:53.947Z,26.89
2022-08-25T21:08:24.055Z,26.74
2022-08-25T21:10:56.130Z,26.64
2022-08-25T21:13:28.347Z,26.64
2022-08-25T21:16:05.698Z,26.64
2022-08-25T21:18:35.585Z,26.56
2022-08-25T21:21:12.297Z,26.45
2022-08-25T21:23:42.009Z,26.37
2022-08-25T21:26:16.449Z,26.54
2022-08-25T21:28:49.158Z,26.47
2022-08-25T21:31:20.738Z,26.51
2022-08-25T21:33:50.818Z,26.40
2022-08-25T21:36:21.154Z,26.40
2022-08-25T21:38:51.412Z,26.28
2022-08-25T21:41:23.382Z,26.21
2022-08-25T21:43:55.901Z,26.25
2022-08-25T21:46:27.657Z,26.20
2022-08-25T21:48:58.764Z,26.21
2022-08-25T21:51:32.736Z,26.30
2022-08-25T21:54:11.573Z,26.33
2022-08-25T21:56:43.555Z,26.20
2022-08-25T21:59:18.560Z,26.20
2022-08-25T22:01:48.718Z,26.13
2022-08-25T22:04:18.461Z,26.12
2022-08-25T22:06:48.677Z,26.13
2022-08-25T22:09:18.246Z,26.08
2022-08-25T22:11:50.789Z,26.19
2022-08-25T22:14:23.490Z,26.33
2022-08-25T22:16:53.657Z,26.22
2022-08-25T22:19:24.902Z,26.43
2022-08-25T22:22:00.948Z,26.53
2022-08-25T22:24:30.610Z,26.54
2022-08-25T22:27:00.288Z,26.59
2022-08-25T22:29:32.940Z,26.66
2022-08-25T22:32:02.840Z,26.51
2022-08-25T22:34:34.642Z,26.55
2022-08-25T22:37:05.810Z,26.55
2022-08-25T22:39:36.421Z,26.45
2022-08-25T22:42:10.482Z,26.34
2022-08-25T22:44:44.344Z,26.39
2022-08-25T22:47:15.591Z,26.40
2022-08-25T22:49:45.241Z,26.33
2022-08-25T22:52:15.893Z,26.22
2022-08-25T22:54:45.535Z,26.11
2022-08-25T22:57:15.253Z,25.96
2022-08-25T22:59:47.658Z,25.73
2022-08-25T23:02:19.207Z,25.82
2022-08-25T23:04:49.154Z,25.56
2022-08-25T23:07:18.847Z,25.40
2022-08-25T23:09:48.825Z,25.36
2022-08-25T23:12:18.577Z,25.13
2022-08-25T23:14:51.765Z,25.19
2022-08-25T23:17:22.192Z,25.19
2022-08-25T23:19:51.921Z,25.16
2022-08-25T23:22:19.550Z,25.16
2022-08-25T23:24:52.029Z,25.13
2022-08-25T23:27:23.910Z,25.15
2022-08-25T23:29:56.111Z,25.19
2022-08-25T23:32:28.153Z,25.13
2022-08-25T23:34:57.848Z,25.19
2022-08-25T23:37:28.444Z,25.17
2022-08-25T23:39:58.866Z,25.02
2022-08-25T23:42:28.688Z,24.89
2022-08-25T23:45:00.907Z,24.85
2022-08-25T23:47:32.145Z,24.73
2022-08-25T23:50:02.140Z,24.74
2022-08-25T23:52:31.753Z,24.68
2022-08-25T23:55:01.539Z,24.78
2022-08-25T23:57:32.029Z,24.73
